createdAt,value
2019-03-31T00:00:43.506Z,23.17
2019-03-31T00:01:42.646Z,23.17
2019-03-31T00:02:42.643Z,23.17
2019-03-31T00:03:42.645Z,23.22
2019-03-31T00:04:43.497Z,23.19
2019-03-31T00:05:42.608Z,23.19
2019-03-31T00:06:43.491Z,23.22
2019-03-31T00:07:42.593Z,23.13
2019-03-31T00:08:43.493Z,23.19
2019-03-31T00:09:42.565Z,23.16
2019-03-31T00:10:42.552Z,23.13
2019-03-31T00:11:42.548Z,23.17
2019-03-31T00:12:42.538Z,23.20
2019-03-31T00:13:42.518Z,23.22
2019-03-31T00:14:42.508Z,23.17
2019-03-31T00:15:42.503Z,23.19
2019-03-31T00:16:42.491Z,23.17
2019-03-31T00:17:42.498Z,23.20
2019-03-31T00:18:42.468Z,23.16
2019-03-31T00:19:42.456Z,23.17
2019-03-31T00:20:42.449Z,23.17
2019-03-31T00:21:42.533Z,23.19
2019-03-31T00:22:42.996Z,23.16
2019-03-31T00:23:42.427Z,23.15
2019-03-31T00:24:42.402Z,23.17
2019-03-31T00:25:42.392Z,23.12
2019-03-31T00:26:42.377Z,23.15
2019-03-31T00:27:42.377Z,23.17
2019-03-31T00:28:42.392Z,23.15
2019-03-31T00:29:42.349Z,23.16
2019-03-31T00:30:42.336Z,23.20
2019-03-31T00:31:42.328Z,23.12
2019-03-31T00:32:42.322Z,23.16
2019-03-31T00:33:42.324Z,23.16
2019-03-31T00:34:42.992Z,23.15
2019-03-31T00:35:42.283Z,23.22
2019-03-31T00:36:42.291Z,23.13
2019-03-31T00:37:42.266Z,23.15
2019-03-31T00:38:42.531Z,23.19
2019-03-31T00:39:42.247Z,23.17
2019-03-31T00:40:42.231Z,23.12
2019-03-31T00:41:42.218Z,23.16
2019-03-31T00:42:42.212Z,23.17
2019-03-31T00:43:42.208Z,23.13
2019-03-31T00:44:43.010Z,23.16
2019-03-31T00:45:42.181Z,23.15
2019-03-31T00:46:42.995Z,23.17
2019-03-31T00:47:42.157Z,23.17
2019-03-31T00:48:42.516Z,23.13
2019-03-31T00:49:42.138Z,23.19
2019-03-31T00:50:42.132Z,23.13
2019-03-31T00:51:42.120Z,23.09
2019-03-31T00:52:42.993Z,23.15
2019-03-31T00:53:42.105Z,23.16
2019-03-31T00:54:42.081Z,23.16
2019-03-31T00:55:42.070Z,23.12
2019-03-31T00:56:42.064Z,23.13
2019-03-31T00:57:42.051Z,23.13
2019-03-31T00:58:42.050Z,23.15
2019-03-31T00:59:42.030Z,23.16
2019-03-31T01:00:43.009Z,23.16
2019-03-31T01:01:42.011Z,23.16
2019-03-31T01:02:42.000Z,23.13
2019-03-31T01:03:42.013Z,23.22
2019-03-31T01:04:41.971Z,23.13
2019-03-31T01:05:41.967Z,23.07
2019-03-31T01:06:41.949Z,23.15
2019-03-31T01:07:42.494Z,23.13
2019-03-31T01:08:41.961Z,23.17
2019-03-31T01:09:41.950Z,23.12
2019-03-31T01:10:41.909Z,23.17
2019-03-31T01:11:41.901Z,23.13
2019-03-31T01:12:42.501Z,23.17
2019-03-31T01:13:41.886Z,23.16
2019-03-31T01:14:41.895Z,23.07
2019-03-31T01:15:41.856Z,23.09
2019-03-31T01:16:42.497Z,23.13
2019-03-31T01:17:41.835Z,23.20
2019-03-31T01:18:41.823Z,23.12
2019-03-31T01:19:41.831Z,23.16
2019-03-31T01:20:42.496Z,23.13
2019-03-31T01:21:41.791Z,23.12
2019-03-31T01:22:41.780Z,23.10
2019-03-31T01:23:41.771Z,23.16
2019-03-31T01:24:42.021Z,23.13
2019-03-31T01:25:41.764Z,23.16
2019-03-31T01:26:41.741Z,23.04
2019-03-31T01:27:41.724Z,23.13
2019-03-31T01:28:41.714Z,23.05
2019-03-31T01:29:42.025Z,23.05
2019-03-31T01:30:41.699Z,23.16
2019-03-31T01:31:50.322Z,23.17
2019-03-31T01:32:41.670Z,23.16
2019-03-31T01:33:41.658Z,23.01
2019-03-31T01:34:42.028Z,23.16
2019-03-31T01:35:42.496Z,23.05
2019-03-31T01:36:41.630Z,23.10
2019-03-31T01:37:41.622Z,23.04
2019-03-31T01:38:41.605Z,23.00
2019-03-31T01:39:41.605Z,23.12
2019-03-31T01:40:41.658Z,23.15
2019-03-31T01:41:42.505Z,23.15
2019-03-31T01:42:41.568Z,23.10
2019-03-31T01:43:41.554Z,23.09
2019-03-31T01:44:41.551Z,23.10
2019-03-31T01:45:42.499Z,23.17
2019-03-31T01:46:42.495Z,23.02
2019-03-31T01:47:41.509Z,23.12
2019-03-31T01:48:41.995Z,23.10
2019-03-31T01:49:41.500Z,23.10
2019-03-31T01:50:42.004Z,23.09
2019-03-31T01:51:41.997Z,23.13
2019-03-31T01:52:41.454Z,23.04
2019-03-31T01:53:41.522Z,23.12
2019-03-31T01:54:41.465Z,23.12
2019-03-31T01:55:41.998Z,23.02
2019-03-31T01:56:44.600Z,23.20
2019-03-31T01:57:41.399Z,23.10
2019-03-31T01:58:41.393Z,23.02
2019-03-31T01:59:41.671Z,23.15
2019-03-31T02:00:41.369Z,23.19
2019-03-31T02:01:41.364Z,23.12
2019-03-31T02:02:42.000Z,23.00
2019-03-31T02:03:41.334Z,23.02
2019-03-31T02:04:42.012Z,23.00
2019-03-31T02:05:41.512Z,23.15
2019-03-31T02:06:41.302Z,23.15
2019-03-31T02:07:41.293Z,23.01
2019-03-31T02:08:42.003Z,23.12
2019-03-31T02:09:41.294Z,23.10
2019-03-31T02:10:41.269Z,23.05
2019-03-31T02:11:41.252Z,23.10
2019-03-31T02:12:41.241Z,23.07
2019-03-31T02:13:41.225Z,23.02
2019-03-31T02:14:41.218Z,23.10
2019-03-31T02:15:41.524Z,23.07
2019-03-31T02:16:41.196Z,23.12
2019-03-31T02:17:41.189Z,22.97
2019-03-31T02:18:41.178Z,23.10
2019-03-31T02:19:41.161Z,23.13
2019-03-31T02:20:41.183Z,23.15
2019-03-31T02:21:41.144Z,23.15
2019-03-31T02:22:41.137Z,23.09
2019-03-31T02:23:41.122Z,23.15
2019-03-31T02:24:41.129Z,23.10
2019-03-31T02:25:41.521Z,23.12
2019-03-31T02:26:42.002Z,23.09
2019-03-31T02:27:41.081Z,23.10
2019-03-31T02:28:41.070Z,23.09
2019-03-31T02:29:41.071Z,23.12
2019-03-31T02:30:41.055Z,23.10
2019-03-31T02:31:41.034Z,23.07
2019-03-31T02:32:41.040Z,23.15
2019-03-31T02:33:41.023Z,23.13
2019-03-31T02:34:41.012Z,23.04
2019-03-31T02:35:40.995Z,23.07
2019-03-31T02:36:41.525Z,23.15
2019-03-31T02:37:40.972Z,23.12
2019-03-31T02:38:41.505Z,23.12
2019-03-31T02:39:40.966Z,23.10
2019-03-31T02:40:41.023Z,23.13
2019-03-31T02:41:41.511Z,23.09
2019-03-31T02:42:40.911Z,23.09
2019-03-31T02:43:40.909Z,23.15
2019-03-31T02:44:40.909Z,23.15
2019-03-31T02:45:40.899Z,23.09
2019-03-31T02:46:40.875Z,23.05
2019-03-31T02:47:40.858Z,23.07
2019-03-31T02:48:40.847Z,23.15
2019-03-31T02:49:40.847Z,23.12
2019-03-31T02:50:41.028Z,23.09
2019-03-31T02:51:40.821Z,23.10
2019-03-31T02:52:41.506Z,23.09
2019-03-31T02:53:40.792Z,23.12
2019-03-31T02:54:40.781Z,23.13
2019-03-31T02:55:40.785Z,23.16
2019-03-31T02:56:40.765Z,23.05
2019-03-31T02:57:41.520Z,23.09
2019-03-31T02:58:40.743Z,23.07
2019-03-31T02:59:40.742Z,23.00
2019-03-31T03:00:40.725Z,23.09
2019-03-31T03:01:40.729Z,23.01
2019-03-31T03:02:42.679Z,23.13
2019-03-31T03:03:40.697Z,23.13
2019-03-31T03:04:40.673Z,23.09
2019-03-31T03:05:40.673Z,23.12
2019-03-31T03:06:41.506Z,23.12
2019-03-31T03:07:40.644Z,23.05
2019-03-31T03:08:40.630Z,23.10
2019-03-31T03:09:40.615Z,23.05
2019-03-31T03:10:40.624Z,23.04
2019-03-31T03:11:41.508Z,23.12
2019-03-31T03:12:41.516Z,23.10
2019-03-31T03:13:40.576Z,23.02
2019-03-31T03:14:40.563Z,23.07
2019-03-31T03:15:41.034Z,23.00
2019-03-31T03:16:40.537Z,23.07
2019-03-31T03:17:40.530Z,23.00
2019-03-31T03:18:40.513Z,23.02
2019-03-31T03:19:40.507Z,23.04
2019-03-31T03:20:40.522Z,23.02
2019-03-31T03:21:40.480Z,23.04
2019-03-31T03:22:40.470Z,23.02
2019-03-31T03:23:41.007Z,23.05
2019-03-31T03:24:40.464Z,23.05
2019-03-31T03:25:55.162Z,23.02
2019-03-31T03:26:40.430Z,23.04
2019-03-31T03:27:40.418Z,23.12
2019-03-31T03:28:40.405Z,23.04
2019-03-31T03:29:41.011Z,23.12
2019-03-31T03:30:40.453Z,23.04
2019-03-31T03:31:40.371Z,23.04
2019-03-31T03:33:11.019Z,23.09
2019-03-31T03:33:40.357Z,23.01
2019-03-31T03:34:40.337Z,23.00
2019-03-31T03:35:40.347Z,23.07
2019-03-31T03:36:43.188Z,23.07
2019-03-31T03:37:40.305Z,23.04
2019-03-31T03:38:40.302Z,23.04
2019-03-31T03:39:40.282Z,23.00
2019-03-31T03:40:40.524Z,23.02
2019-03-31T03:41:40.269Z,22.98
2019-03-31T03:42:40.250Z,23.01
2019-03-31T03:43:54.853Z,23.05
2019-03-31T03:44:40.231Z,23.04
2019-03-31T03:45:40.231Z,23.07
2019-03-31T03:46:40.207Z,23.02
2019-03-31T03:47:40.201Z,23.01
2019-03-31T03:48:40.182Z,23.02
2019-03-31T03:49:40.170Z,23.02
2019-03-31T03:50:40.182Z,23.00
2019-03-31T03:51:41.008Z,23.09
2019-03-31T03:52:40.139Z,23.07
2019-03-31T03:53:40.131Z,23.01
2019-03-31T03:54:40.118Z,23.00
2019-03-31T03:55:40.520Z,23.09
2019-03-31T03:56:41.009Z,23.01
2019-03-31T03:57:40.088Z,23.00
2019-03-31T03:58:40.094Z,23.04
2019-03-31T03:59:40.089Z,23.05
2019-03-31T04:00:40.083Z,23.04
2019-03-31T04:01:41.008Z,23.05
2019-03-31T04:02:40.033Z,23.07
2019-03-31T04:03:40.031Z,23.02
2019-03-31T04:04:40.041Z,22.98
2019-03-31T04:05:39.998Z,23.05
2019-03-31T04:06:39.999Z,23.04
2019-03-31T04:07:39.980Z,23.07
2019-03-31T04:08:39.982Z,23.04
2019-03-31T04:09:39.961Z,23.01
2019-03-31T04:10:39.943Z,23.05
2019-03-31T04:11:39.957Z,23.04
2019-03-31T04:12:39.924Z,23.02
2019-03-31T04:13:40.512Z,22.98
2019-03-31T04:14:39.906Z,23.05
2019-03-31T04:15:39.934Z,22.97
2019-03-31T04:16:39.898Z,22.94
2019-03-31T04:17:39.874Z,23.02
2019-03-31T04:18:39.862Z,23.01
2019-03-31T04:19:40.509Z,23.01
2019-03-31T04:20:39.919Z,23.01
2019-03-31T04:21:39.849Z,23.04
2019-03-31T04:22:40.516Z,22.94
2019-03-31T04:23:39.806Z,23.02
2019-03-31T04:24:39.806Z,23.04
2019-03-31T04:25:39.814Z,23.04
2019-03-31T04:26:39.786Z,23.01
2019-03-31T04:27:40.509Z,23.04
2019-03-31T04:28:39.753Z,23.00
2019-03-31T04:29:40.539Z,23.01
2019-03-31T04:30:39.745Z,23.02
2019-03-31T04:31:39.730Z,22.92
2019-03-31T04:32:39.731Z,22.94
2019-03-31T04:33:50.259Z,22.95
2019-03-31T04:34:39.699Z,23.01
2019-03-31T04:35:39.675Z,23.01
2019-03-31T04:36:39.679Z,22.98
2019-03-31T04:37:39.659Z,23.00
2019-03-31T04:38:39.663Z,23.01
2019-03-31T04:39:39.654Z,22.97
2019-03-31T04:40:39.631Z,23.01
2019-03-31T04:41:39.618Z,23.02
2019-03-31T04:42:39.598Z,23.01
2019-03-31T04:43:39.582Z,23.00
2019-03-31T04:44:39.586Z,23.04
2019-03-31T04:45:39.568Z,22.91
2019-03-31T04:46:39.567Z,22.95
2019-03-31T04:47:39.541Z,22.92
2019-03-31T04:48:39.530Z,23.02
2019-03-31T04:49:39.527Z,22.92
2019-03-31T04:50:39.507Z,22.94
2019-03-31T04:51:39.543Z,22.98
2019-03-31T04:52:40.015Z,22.97
2019-03-31T04:53:39.477Z,22.95
2019-03-31T04:54:40.012Z,23.00
2019-03-31T04:55:39.456Z,22.95
2019-03-31T04:56:39.530Z,22.95
2019-03-31T04:57:39.436Z,23.00
2019-03-31T04:58:40.011Z,22.91
2019-03-31T04:59:40.009Z,22.91
2019-03-31T05:00:39.402Z,22.97
2019-03-31T05:01:39.526Z,22.98
2019-03-31T05:02:39.378Z,23.05
2019-03-31T05:03:39.363Z,23.02
2019-03-31T05:04:39.361Z,22.97
2019-03-31T05:05:39.346Z,22.90
2019-03-31T05:06:39.346Z,23.01
2019-03-31T05:07:39.323Z,22.92
2019-03-31T05:08:39.311Z,22.95
2019-03-31T05:09:39.296Z,23.05
2019-03-31T05:10:39.291Z,22.92
2019-03-31T05:11:39.563Z,22.92
2019-03-31T05:12:39.266Z,22.97
2019-03-31T05:13:39.257Z,22.95
2019-03-31T05:14:39.246Z,22.86
2019-03-31T05:15:39.234Z,22.95
2019-03-31T05:16:39.233Z,22.97
2019-03-31T05:17:39.220Z,22.88
2019-03-31T05:18:40.016Z,22.94
2019-03-31T05:19:39.188Z,22.92
2019-03-31T05:20:40.015Z,22.92
2019-03-31T05:21:40.033Z,22.92
2019-03-31T05:22:39.530Z,22.92
2019-03-31T05:23:39.142Z,22.95
2019-03-31T05:24:39.130Z,22.95
2019-03-31T05:25:39.123Z,22.92
2019-03-31T05:26:40.026Z,22.95
2019-03-31T05:27:39.524Z,22.90
2019-03-31T05:28:39.089Z,22.98
2019-03-31T05:29:39.077Z,22.95
2019-03-31T05:30:39.066Z,22.97
2019-03-31T05:31:40.026Z,22.94
2019-03-31T05:32:39.070Z,22.97
2019-03-31T05:33:39.042Z,22.92
2019-03-31T05:34:39.023Z,22.92
2019-03-31T05:35:39.010Z,22.94
2019-03-31T05:36:39.535Z,22.94
2019-03-31T05:37:50.262Z,23.00
2019-03-31T05:38:38.989Z,22.88
2019-03-31T05:39:38.965Z,22.94
2019-03-31T05:40:38.953Z,22.92
2019-03-31T05:41:38.961Z,22.90
2019-03-31T05:42:38.951Z,22.95
2019-03-31T05:43:38.928Z,22.94
2019-03-31T05:44:38.906Z,22.91
2019-03-31T05:45:38.902Z,22.90
2019-03-31T05:46:39.532Z,22.98
2019-03-31T05:47:38.887Z,22.91
2019-03-31T05:48:39.516Z,22.91
2019-03-31T05:49:38.849Z,22.95
2019-03-31T05:50:39.525Z,22.91
2019-03-31T05:51:38.844Z,22.95
2019-03-31T05:52:38.838Z,22.90
2019-03-31T05:53:38.823Z,22.90
2019-03-31T05:54:38.798Z,22.94
2019-03-31T05:55:38.787Z,22.95
2019-03-31T05:56:38.793Z,22.94
2019-03-31T05:57:38.777Z,22.90
2019-03-31T05:58:38.762Z,22.90
2019-03-31T05:59:38.745Z,22.91
2019-03-31T06:00:38.735Z,22.90
2019-03-31T06:01:38.738Z,22.97
2019-03-31T06:02:38.722Z,22.90
2019-03-31T06:03:39.517Z,22.94
2019-03-31T06:04:38.688Z,22.98
2019-03-31T06:05:39.526Z,22.94
2019-03-31T06:06:39.529Z,22.92
2019-03-31T06:07:38.663Z,22.92
2019-03-31T06:08:38.644Z,22.91
2019-03-31T06:09:38.631Z,22.92
2019-03-31T06:10:38.620Z,22.90
2019-03-31T06:11:38.629Z,22.94
2019-03-31T06:12:39.040Z,22.95
2019-03-31T06:13:39.516Z,22.92
2019-03-31T06:14:38.575Z,22.92
2019-03-31T06:15:38.574Z,22.91
2019-03-31T06:16:38.562Z,22.97
2019-03-31T06:17:38.553Z,22.88
2019-03-31T06:18:38.532Z,22.91
2019-03-31T06:19:39.519Z,22.95
2019-03-31T06:20:38.515Z,22.95
2019-03-31T06:21:38.561Z,22.95
2019-03-31T06:22:38.550Z,22.95
2019-03-31T06:23:38.479Z,22.92
2019-03-31T06:24:38.465Z,22.95
2019-03-31T06:25:38.464Z,22.90
2019-03-31T06:26:38.446Z,22.88
2019-03-31T06:27:38.539Z,22.94
2019-03-31T06:28:38.419Z,22.95
2019-03-31T06:29:39.022Z,22.90
2019-03-31T06:30:38.402Z,22.95
2019-03-31T06:31:38.387Z,22.91
2019-03-31T06:32:38.388Z,22.88
2019-03-31T06:33:38.376Z,22.94
2019-03-31T06:34:47.493Z,22.92
2019-03-31T06:35:38.343Z,22.94
2019-03-31T06:36:38.332Z,22.86
2019-03-31T06:37:38.338Z,22.86
2019-03-31T06:38:38.313Z,22.88
2019-03-31T06:39:38.299Z,22.91
2019-03-31T06:40:39.021Z,22.97
2019-03-31T06:41:39.025Z,22.95
2019-03-31T06:42:38.284Z,22.95
2019-03-31T06:43:38.252Z,22.94
2019-03-31T06:44:38.375Z,22.91
2019-03-31T06:45:39.030Z,22.92
2019-03-31T06:46:38.226Z,22.91
2019-03-31T06:47:38.224Z,22.85
2019-03-31T06:48:38.200Z,22.95
2019-03-31T06:49:38.195Z,22.91
2019-03-31T06:50:38.178Z,22.88
2019-03-31T06:51:38.168Z,22.91
2019-03-31T06:52:38.173Z,22.94
2019-03-31T06:53:38.153Z,22.92
2019-03-31T06:54:39.020Z,22.91
2019-03-31T06:55:39.023Z,22.95
2019-03-31T06:56:38.112Z,22.92
2019-03-31T06:57:38.548Z,22.86
2019-03-31T06:58:39.045Z,22.91
2019-03-31T06:59:38.078Z,22.86
2019-03-31T07:00:39.023Z,22.88
2019-03-31T07:01:39.029Z,22.88
2019-03-31T07:02:38.069Z,22.86
2019-03-31T07:03:38.046Z,22.92
2019-03-31T07:04:38.021Z,22.86
2019-03-31T07:05:38.011Z,22.88
2019-03-31T07:06:38.000Z,22.82
2019-03-31T07:07:38.003Z,22.92
2019-03-31T07:08:38.031Z,22.86
2019-03-31T07:09:37.973Z,22.86
2019-03-31T07:10:37.954Z,22.83
2019-03-31T07:11:37.944Z,22.88
2019-03-31T07:12:37.946Z,22.90
2019-03-31T07:13:38.035Z,22.86
2019-03-31T07:14:37.910Z,22.94
2019-03-31T07:15:38.525Z,22.86
2019-03-31T07:16:38.521Z,22.85
2019-03-31T07:17:37.896Z,22.82
2019-03-31T07:18:38.038Z,22.85
2019-03-31T07:19:37.876Z,22.86
2019-03-31T07:20:37.849Z,22.88
2019-03-31T07:21:37.835Z,22.86
2019-03-31T07:22:38.542Z,22.90
2019-03-31T07:23:37.826Z,22.91
2019-03-31T07:24:37.807Z,22.88
2019-03-31T07:25:37.802Z,22.83
2019-03-31T07:26:38.531Z,22.86
2019-03-31T07:27:37.775Z,22.91
2019-03-31T07:28:38.047Z,22.88
2019-03-31T07:29:37.753Z,22.86
2019-03-31T07:30:38.523Z,22.85
2019-03-31T07:31:37.732Z,22.85
2019-03-31T07:32:37.723Z,22.80
2019-03-31T07:33:38.043Z,22.86
2019-03-31T07:34:37.698Z,22.94
2019-03-31T07:35:39.091Z,22.86
2019-03-31T07:36:37.684Z,22.90
2019-03-31T07:37:47.093Z,22.86
2019-03-31T07:38:39.132Z,22.85
2019-03-31T07:39:37.641Z,22.86
2019-03-31T07:40:37.656Z,22.86
2019-03-31T07:41:37.997Z,22.83
2019-03-31T07:42:37.623Z,22.88
2019-03-31T07:43:37.619Z,22.83
2019-03-31T07:44:37.586Z,22.91
2019-03-31T07:45:37.577Z,22.86
2019-03-31T07:46:37.581Z,22.80
2019-03-31T07:47:37.570Z,22.88
2019-03-31T07:48:37.562Z,22.85
2019-03-31T07:49:37.533Z,22.88
2019-03-31T07:50:37.524Z,22.91
2019-03-31T07:51:37.736Z,22.82
2019-03-31T07:52:37.519Z,22.86
2019-03-31T07:53:37.534Z,22.83
2019-03-31T07:54:37.477Z,22.86
2019-03-31T07:55:38.028Z,22.85
2019-03-31T07:56:37.456Z,22.85
2019-03-31T07:57:37.461Z,22.90
2019-03-31T07:58:37.587Z,22.82
2019-03-31T07:59:37.428Z,22.91
2019-03-31T08:00:38.038Z,22.90
2019-03-31T08:01:38.026Z,22.82
2019-03-31T08:02:37.410Z,22.90
2019-03-31T08:03:37.392Z,22.82
2019-03-31T08:04:38.042Z,22.83
2019-03-31T08:05:38.027Z,22.83
2019-03-31T08:06:38.027Z,22.91
2019-03-31T08:07:37.365Z,22.80
2019-03-31T08:08:37.341Z,22.90
2019-03-31T08:09:37.317Z,22.90
2019-03-31T08:10:37.328Z,22.88
2019-03-31T08:11:38.079Z,22.83
2019-03-31T08:12:38.042Z,22.83
2019-03-31T08:13:37.539Z,22.80
2019-03-31T08:14:37.264Z,22.85
2019-03-31T08:15:37.258Z,22.82
2019-03-31T08:16:38.032Z,22.77
2019-03-31T08:17:37.244Z,22.86
2019-03-31T08:18:37.241Z,22.80
2019-03-31T08:19:37.217Z,22.82
2019-03-31T08:20:37.204Z,22.85
2019-03-31T08:21:37.195Z,22.80
2019-03-31T08:22:37.186Z,22.90
2019-03-31T08:23:37.189Z,22.85
2019-03-31T08:24:37.156Z,22.88
2019-03-31T08:25:37.154Z,22.80
2019-03-31T08:26:37.137Z,22.83
2019-03-31T08:27:37.141Z,22.82
2019-03-31T08:28:37.132Z,22.80
2019-03-31T08:29:37.109Z,22.85
2019-03-31T08:30:37.092Z,22.77
2019-03-31T08:31:37.084Z,22.80
2019-03-31T08:32:37.082Z,22.79
2019-03-31T08:33:37.541Z,22.88
2019-03-31T08:34:37.060Z,22.80
2019-03-31T08:35:47.195Z,22.82
2019-03-31T08:36:37.037Z,22.83
2019-03-31T08:37:37.019Z,22.83
2019-03-31T08:38:37.058Z,22.82
2019-03-31T08:39:37.534Z,22.80
2019-03-31T08:40:36.986Z,22.82
2019-03-31T08:41:37.535Z,22.88
2019-03-31T08:42:36.987Z,22.88
2019-03-31T08:43:36.967Z,22.80
2019-03-31T08:44:36.945Z,22.80
2019-03-31T08:45:36.935Z,22.82
2019-03-31T08:46:36.929Z,22.90
2019-03-31T08:47:37.548Z,22.80
2019-03-31T08:48:36.915Z,22.83
2019-03-31T08:49:36.890Z,22.85
2019-03-31T08:50:36.883Z,22.88
2019-03-31T08:51:36.869Z,22.90
2019-03-31T08:52:36.877Z,22.83
2019-03-31T08:53:37.048Z,22.80
2019-03-31T08:54:36.838Z,22.80
2019-03-31T08:55:37.533Z,22.88
2019-03-31T08:56:36.822Z,22.82
2019-03-31T08:57:36.815Z,22.85
2019-03-31T08:58:36.807Z,22.82
2019-03-31T08:59:36.783Z,22.86
2019-03-31T09:00:36.771Z,22.75
2019-03-31T09:01:36.761Z,22.82
2019-03-31T09:02:37.547Z,22.80
2019-03-31T09:03:36.767Z,22.86
2019-03-31T09:04:37.533Z,22.88
2019-03-31T09:05:36.733Z,22.85
2019-03-31T09:06:36.716Z,22.82
2019-03-31T09:07:36.702Z,22.85
2019-03-31T09:08:36.714Z,22.79
2019-03-31T09:09:36.678Z,22.82
2019-03-31T09:10:36.669Z,22.82
2019-03-31T09:11:36.655Z,22.80
2019-03-31T09:12:36.646Z,22.80
2019-03-31T09:13:36.941Z,22.83
2019-03-31T09:14:36.624Z,22.82
2019-03-31T09:15:36.612Z,22.86
2019-03-31T09:16:36.598Z,22.80
2019-03-31T09:17:36.591Z,22.80
2019-03-31T09:18:36.594Z,22.83
2019-03-31T09:19:36.582Z,22.88
2019-03-31T09:20:36.566Z,22.82
2019-03-31T09:21:36.558Z,22.80
2019-03-31T09:22:36.542Z,22.83
2019-03-31T09:23:36.538Z,22.82
2019-03-31T09:24:36.546Z,22.83
2019-03-31T09:25:36.507Z,22.82
2019-03-31T09:26:36.511Z,22.82
2019-03-31T09:27:36.489Z,22.85
2019-03-31T09:28:36.488Z,22.83
2019-03-31T09:29:36.548Z,22.88
2019-03-31T09:30:36.449Z,22.86
2019-03-31T09:31:36.446Z,22.86
2019-03-31T09:32:36.436Z,22.83
2019-03-31T09:33:39.293Z,22.80
2019-03-31T09:34:36.551Z,22.82
2019-03-31T09:35:36.400Z,22.85
2019-03-31T09:36:36.386Z,22.82
2019-03-31T09:37:36.373Z,22.88
2019-03-31T09:38:36.379Z,22.82
2019-03-31T09:39:36.457Z,22.90
2019-03-31T09:40:36.341Z,22.85
2019-03-31T09:41:36.331Z,22.80
2019-03-31T09:42:36.320Z,22.80
2019-03-31T09:43:36.325Z,22.88
2019-03-31T09:44:36.309Z,22.90
2019-03-31T09:45:36.285Z,22.80
2019-03-31T09:46:36.285Z,22.77
2019-03-31T09:47:36.267Z,22.80
2019-03-31T09:48:37.060Z,22.88
2019-03-31T09:49:36.255Z,22.90
2019-03-31T09:50:37.033Z,22.90
2019-03-31T09:51:36.220Z,22.82
2019-03-31T09:52:36.210Z,22.83
2019-03-31T09:53:37.050Z,22.90
2019-03-31T09:54:36.207Z,22.85
2019-03-31T09:55:37.031Z,22.91
2019-03-31T09:56:37.034Z,22.82
2019-03-31T09:57:36.159Z,22.85
2019-03-31T09:58:36.159Z,22.91
2019-03-31T09:59:36.144Z,22.88
2019-03-31T10:00:37.034Z,22.88
2019-03-31T10:01:36.118Z,22.85
2019-03-31T10:02:36.106Z,22.80
2019-03-31T10:03:36.109Z,22.86
2019-03-31T10:04:36.111Z,22.85
2019-03-31T10:05:36.071Z,22.88
2019-03-31T10:06:37.035Z,22.90
2019-03-31T10:07:37.035Z,22.92
2019-03-31T10:08:36.061Z,22.88
2019-03-31T10:09:36.056Z,22.88
2019-03-31T10:10:36.533Z,22.88
2019-03-31T10:11:36.012Z,22.91
2019-03-31T10:12:36.003Z,22.86
2019-03-31T10:13:36.001Z,22.94
2019-03-31T10:14:35.989Z,22.94
2019-03-31T10:15:36.541Z,22.95
2019-03-31T10:16:35.957Z,22.91
2019-03-31T10:17:35.939Z,22.94
2019-03-31T10:18:36.556Z,22.92
2019-03-31T10:19:35.932Z,22.86
2019-03-31T10:20:35.910Z,22.94
2019-03-31T10:21:35.901Z,22.95
2019-03-31T10:22:35.950Z,22.98
2019-03-31T10:23:35.888Z,22.97
2019-03-31T10:24:36.058Z,22.92
2019-03-31T10:25:36.539Z,22.94
2019-03-31T10:26:36.541Z,22.90
2019-03-31T10:27:36.546Z,22.92
2019-03-31T10:28:35.850Z,22.91
2019-03-31T10:29:35.822Z,22.94
2019-03-31T10:30:35.800Z,22.94
2019-03-31T10:31:35.794Z,22.90
2019-03-31T10:32:36.543Z,22.95
2019-03-31T10:33:36.538Z,22.94
2019-03-31T10:34:35.778Z,22.94
2019-03-31T10:35:35.748Z,22.92
2019-03-31T10:36:44.250Z,22.94
2019-03-31T10:37:35.735Z,22.94
2019-03-31T10:38:36.540Z,22.95
2019-03-31T10:39:35.713Z,22.91
2019-03-31T10:40:35.708Z,22.97
2019-03-31T10:41:35.686Z,23.01
2019-03-31T10:42:35.675Z,22.97
2019-03-31T10:43:35.663Z,22.92
2019-03-31T10:44:35.655Z,22.94
2019-03-31T10:45:36.053Z,23.01
2019-03-31T10:46:36.539Z,22.90
2019-03-31T10:47:35.618Z,23.02
2019-03-31T10:48:36.535Z,23.01
2019-03-31T10:49:35.595Z,22.91
2019-03-31T10:50:35.608Z,23.00
2019-03-31T10:51:35.579Z,22.98
2019-03-31T10:52:36.536Z,23.01
2019-03-31T10:53:36.556Z,23.04
2019-03-31T10:54:35.557Z,22.98
2019-03-31T10:55:35.554Z,22.97
2019-03-31T10:56:35.525Z,22.97
2019-03-31T10:57:35.514Z,23.04
2019-03-31T10:58:35.517Z,23.05
2019-03-31T10:59:35.492Z,23.04
2019-03-31T11:00:35.506Z,23.07
2019-03-31T11:01:36.039Z,23.02
2019-03-31T11:02:35.457Z,23.00
2019-03-31T11:03:35.464Z,22.97
2019-03-31T11:04:35.438Z,23.13
2019-03-31T11:05:35.444Z,23.09
2019-03-31T11:06:35.421Z,23.12
2019-03-31T11:07:35.406Z,23.12
2019-03-31T11:08:35.405Z,23.05
2019-03-31T11:09:35.389Z,23.19
2019-03-31T11:10:35.557Z,23.09
2019-03-31T11:11:35.369Z,23.01
2019-03-31T11:12:36.042Z,22.97
2019-03-31T11:13:35.348Z,23.17
2019-03-31T11:14:35.333Z,23.07
2019-03-31T11:15:35.329Z,23.04
2019-03-31T11:16:36.068Z,23.05
2019-03-31T11:17:35.310Z,23.10
2019-03-31T11:18:35.296Z,23.12
2019-03-31T11:19:35.280Z,23.10
2019-03-31T11:20:35.274Z,23.13
2019-03-31T11:21:35.257Z,23.19
2019-03-31T11:22:36.043Z,23.17
2019-03-31T11:23:35.286Z,23.19
2019-03-31T11:24:35.224Z,23.16
2019-03-31T11:25:35.239Z,23.16
2019-03-31T11:26:35.210Z,23.15
2019-03-31T11:27:35.194Z,23.20
2019-03-31T11:28:35.180Z,23.13
2019-03-31T11:29:36.055Z,23.12
2019-03-31T11:30:35.550Z,23.23
2019-03-31T11:31:35.149Z,23.15
2019-03-31T11:32:35.142Z,23.17
2019-03-31T11:33:35.133Z,23.20
2019-03-31T11:34:35.132Z,23.20
2019-03-31T11:35:35.121Z,23.25
2019-03-31T11:36:36.041Z,23.27
2019-03-31T11:37:35.089Z,23.22
2019-03-31T11:38:35.076Z,23.25
2019-03-31T11:39:35.083Z,23.23
2019-03-31T11:40:35.067Z,23.27
2019-03-31T11:41:35.045Z,23.33
2019-03-31T11:42:35.035Z,23.25
2019-03-31T11:43:35.025Z,23.23
2019-03-31T11:44:35.031Z,23.25
2019-03-31T11:45:35.019Z,23.28
2019-03-31T11:46:34.989Z,23.32
2019-03-31T11:47:34.981Z,23.35
2019-03-31T11:48:34.969Z,23.33
2019-03-31T11:49:34.972Z,23.33
2019-03-31T11:50:34.959Z,23.38
2019-03-31T11:51:34.938Z,23.35
2019-03-31T11:52:34.926Z,23.38
2019-03-31T11:53:34.913Z,23.40
2019-03-31T11:54:34.918Z,23.40
2019-03-31T11:55:35.057Z,23.40
2019-03-31T11:56:34.887Z,23.39
2019-03-31T11:57:34.871Z,23.47
2019-03-31T11:58:34.862Z,23.43
2019-03-31T11:59:35.566Z,23.40
2019-03-31T12:00:34.847Z,23.47
2019-03-31T12:01:35.540Z,23.43
2019-03-31T12:02:34.836Z,23.47
2019-03-31T12:03:34.809Z,23.48
2019-03-31T12:04:34.808Z,23.48
2019-03-31T12:05:34.809Z,23.43
2019-03-31T12:06:34.777Z,23.51
2019-03-31T12:07:46.020Z,23.54
2019-03-31T12:08:34.757Z,23.48
2019-03-31T12:09:34.748Z,23.53
2019-03-31T12:10:34.757Z,23.51
2019-03-31T12:11:34.723Z,23.60
2019-03-31T12:12:34.725Z,23.55
2019-03-31T12:13:34.707Z,23.53
2019-03-31T12:14:34.714Z,23.53
2019-03-31T12:15:34.696Z,23.57
2019-03-31T12:16:34.672Z,23.58
2019-03-31T12:17:34.661Z,23.57
2019-03-31T12:18:34.649Z,23.53
2019-03-31T12:19:34.652Z,23.60
2019-03-31T12:20:35.064Z,23.63
2019-03-31T12:21:34.615Z,23.61
2019-03-31T12:22:34.605Z,23.63
2019-03-31T12:23:34.594Z,23.58
2019-03-31T12:24:34.601Z,23.57
2019-03-31T12:25:35.073Z,23.68
2019-03-31T12:26:34.564Z,23.70
2019-03-31T12:27:34.551Z,23.72
2019-03-31T12:28:34.539Z,23.63
2019-03-31T12:29:34.549Z,23.69
2019-03-31T12:30:34.538Z,23.72
2019-03-31T12:31:34.520Z,23.75
2019-03-31T12:32:38.049Z,23.75
2019-03-31T12:33:34.487Z,23.78
2019-03-31T12:34:34.489Z,23.78
2019-03-31T12:35:34.468Z,23.72
2019-03-31T12:36:34.459Z,23.69
2019-03-31T12:37:42.311Z,23.75
2019-03-31T12:38:34.438Z,23.72
2019-03-31T12:39:35.060Z,23.73
2019-03-31T12:40:34.405Z,23.73
2019-03-31T12:41:34.411Z,23.76
2019-03-31T12:42:34.385Z,23.83
2019-03-31T12:43:34.377Z,23.80
2019-03-31T12:44:34.375Z,23.88
2019-03-31T12:45:34.354Z,23.84
2019-03-31T12:46:34.562Z,23.88
2019-03-31T12:47:34.330Z,23.93
2019-03-31T12:48:34.329Z,23.88
2019-03-31T12:49:34.324Z,23.87
2019-03-31T12:50:34.303Z,23.85
2019-03-31T12:51:34.295Z,23.88
2019-03-31T12:52:46.071Z,23.84